UTDL

Khudzhand Airport

Khudzhand, Tajikistan
TAF UTDL 251500Z 2516/2601 24005MPS 9999 NSC TEMPO 2516/2601 VRB02MPS
Issued Valid From Valid To
Sep-25 @ 15:00 UTC
(3 hours ago)
Sep-25 @ 16:00 UTC
(2 hours ago)
Sep-26 @ 01:00 UTC
(in 7 hours)
Sep-25 @ 16:00 to Sep-26 @ 01:00
TAF UTDL 251500Z 2516/2601 24005MPS 9999 NSC
Wind Visibility Clouds
240° at 10 knots 10,000+ meters
  • No significant clouds
Temporary Sep-25 @ 16:00 to Sep-26 @ 01:00
TEMPO 2516/2601 VRB02MPS
Wind
Variable at 4 knots
TAF UTDL 251500Z 2516/2601 24005MPS 9999 NSC TEMPO 2516/2601 VRB02MPS
Issued Sep-25 @ 15:00 UTC
(3 hours ago)
Valid From Sep-25 @ 16:00 UTC
(2 hours ago)
Valid To Sep-26 @ 01:00 UTC
(in 7 hours)
Sep-25 @ 16:00 - Sep-26 @ 01:00
Wind Visibility
240° at 10 knots 10,000+ meters
Clouds
  • No significant clouds
Temporary Sep-25 @ 16:00 - Sep-26 @ 01:00
Wind
Variable at 4 knots